createdAt,value
2018-12-13T00:00:01.171Z,0.00
2018-12-13T00:01:01.106Z,0.00
2018-12-13T00:02:01.064Z,0.00
2018-12-13T00:03:01.020Z,0.00
2018-12-13T00:04:00.978Z,0.00
2018-12-13T00:05:00.956Z,0.00
2018-12-13T00:06:00.877Z,0.00
2018-12-13T00:07:00.831Z,0.00
2018-12-13T00:08:00.788Z,0.00
2018-12-13T00:09:00.740Z,0.00
2018-12-13T00:10:00.704Z,0.00
2018-12-13T00:11:00.682Z,0.00
2018-12-13T00:12:00.608Z,0.00
2018-12-13T00:13:00.559Z,0.00
2018-12-13T00:14:00.521Z,0.00
2018-12-13T00:15:00.475Z,0.00
2018-12-13T00:16:00.461Z,0.00
2018-12-13T00:17:00.389Z,0.00
2018-12-13T00:18:00.337Z,0.00
2018-12-13T00:19:00.291Z,0.00
2018-12-13T00:20:00.243Z,0.00
2018-12-13T00:21:00.199Z,0.00
2018-12-13T00:22:00.205Z,0.00
2018-12-13T00:23:00.120Z,0.00
2018-12-13T00:24:00.068Z,0.00
2018-12-13T00:25:00.024Z,0.00
2018-12-13T00:25:59.974Z,0.00
2018-12-13T00:26:59.927Z,0.00
2018-12-13T00:27:59.919Z,0.00
2018-12-13T00:28:59.841Z,0.00
2018-12-13T00:29:59.790Z,0.00
2018-12-13T00:30:59.748Z,0.00
2018-12-13T00:31:59.699Z,0.00
2018-12-13T00:32:59.653Z,0.00
2018-12-13T00:33:59.639Z,0.00
2018-12-13T00:34:59.572Z,0.00
2018-12-13T00:35:59.527Z,0.00
2018-12-13T00:36:59.480Z,0.00
2018-12-13T00:37:59.428Z,0.00
2018-12-13T00:38:59.405Z,0.00
2018-12-13T00:39:59.338Z,0.00
2018-12-13T00:40:59.289Z,0.00
2018-12-13T00:41:59.250Z,0.00
2018-12-13T00:42:59.210Z,0.00
2018-12-13T00:43:59.178Z,0.00
2018-12-13T00:44:59.107Z,0.00
2018-12-13T00:45:59.069Z,0.00
2018-12-13T00:46:59.023Z,0.00
2018-12-13T00:47:58.976Z,0.00
2018-12-13T00:48:58.958Z,0.00
2018-12-13T00:49:58.880Z,0.00
2018-12-13T00:50:58.834Z,0.00
2018-12-13T00:51:58.787Z,0.00
2018-12-13T00:52:58.741Z,0.00
2018-12-13T00:53:58.713Z,0.00
2018-12-13T00:54:58.682Z,0.00
2018-12-13T00:55:58.611Z,0.00
2018-12-13T00:56:58.565Z,0.00
2018-12-13T00:57:58.512Z,0.00
2018-12-13T00:58:58.469Z,0.00
2018-12-13T00:59:58.451Z,0.00
2018-12-13T01:00:58.408Z,0.00
2018-12-13T01:01:58.330Z,0.00
2018-12-13T01:02:58.284Z,0.00
2018-12-13T01:03:58.242Z,0.00
2018-12-13T01:04:58.189Z,0.00
2018-12-13T01:05:58.153Z,0.00
2018-12-13T01:06:58.131Z,0.00
2018-12-13T01:07:58.064Z,0.00
2018-12-13T01:08:58.014Z,0.00
2018-12-13T01:09:57.962Z,0.00
2018-12-13T01:10:57.938Z,0.00
2018-12-13T01:11:57.871Z,0.00
2018-12-13T01:12:57.826Z,0.00
2018-12-13T01:13:57.787Z,0.00
2018-12-13T01:14:57.740Z,0.00
2018-12-13T01:15:57.710Z,0.00
2018-12-13T01:16:57.640Z,0.00
2018-12-13T01:17:57.603Z,0.00
2018-12-13T01:18:57.560Z,0.00
2018-12-13T01:19:57.540Z,0.00
2018-12-13T01:20:57.486Z,0.00
2018-12-13T01:21:57.410Z,0.00
2018-12-13T01:22:57.366Z,0.00
2018-12-13T01:23:57.319Z,0.00
2018-12-13T01:24:57.297Z,0.00
2018-12-13T01:25:57.261Z,0.00
2018-12-13T01:26:57.186Z,0.00
2018-12-13T01:27:57.143Z,0.00
2018-12-13T01:28:57.096Z,0.00
2018-12-13T01:29:57.042Z,0.00
2018-12-13T01:30:56.996Z,0.00
2018-12-13T01:31:56.982Z,0.00
2018-12-13T01:32:56.914Z,0.00
2018-12-13T01:33:56.857Z,0.00
2018-12-13T01:34:56.810Z,0.00
2018-12-13T01:35:56.765Z,0.00
2018-12-13T01:36:56.743Z,0.00
2018-12-13T01:37:56.681Z,0.00
2018-12-13T01:38:56.633Z,0.00
2018-12-13T01:39:56.586Z,0.00
2018-12-13T01:40:56.566Z,0.00
2018-12-13T01:41:56.512Z,0.00
2018-12-13T01:42:56.443Z,0.00
2018-12-13T01:43:56.397Z,0.00
2018-12-13T01:44:56.352Z,0.00
2018-12-13T01:45:56.336Z,0.00
2018-12-13T01:46:56.268Z,0.00
2018-12-13T01:47:56.214Z,0.00
2018-12-13T01:48:56.196Z,0.00
2018-12-13T01:49:56.129Z,0.00
2018-12-13T01:50:56.084Z,0.00
2018-12-13T01:51:56.034Z,0.00
2018-12-13T01:52:55.990Z,0.00
2018-12-13T01:53:55.937Z,0.00
2018-12-13T01:54:55.914Z,0.00
2018-12-13T01:55:55.843Z,0.00
2018-12-13T01:56:55.797Z,0.00
2018-12-13T01:57:55.758Z,0.00
2018-12-13T01:58:55.713Z,0.00
2018-12-13T01:59:55.696Z,0.00
2018-12-13T02:00:55.620Z,0.00
2018-12-13T02:01:55.568Z,0.00
2018-12-13T02:02:55.524Z,0.00
2018-12-13T02:03:55.486Z,0.00
2018-12-13T02:04:55.434Z,0.00
2018-12-13T02:05:55.408Z,0.00
2018-12-13T02:06:58.629Z,0.00
2018-12-13T02:07:55.290Z,0.00
2018-12-13T02:08:55.246Z,0.00
2018-12-13T02:09:55.206Z,0.00
2018-12-13T02:10:55.184Z,0.00
2018-12-13T02:11:55.115Z,0.00
2018-12-13T02:12:55.067Z,0.00
2018-12-13T02:13:55.017Z,0.00
2018-12-13T02:14:54.971Z,0.00
2018-12-13T02:15:54.952Z,0.00
2018-12-13T02:16:54.877Z,0.00
2018-12-13T02:17:54.837Z,0.00
2018-12-13T02:18:54.790Z,0.00
2018-12-13T02:19:54.738Z,0.00
2018-12-13T02:20:54.691Z,0.00
2018-12-13T02:21:54.682Z,0.00
2018-12-13T02:22:54.606Z,0.00
2018-12-13T02:23:54.561Z,0.00
2018-12-13T02:24:54.512Z,0.00
2018-12-13T02:25:54.460Z,0.00
2018-12-13T02:26:54.415Z,0.00
2018-12-13T02:27:54.398Z,0.00
2018-12-13T02:28:54.320Z,0.00
2018-12-13T02:29:54.288Z,0.00
2018-12-13T02:30:54.237Z,0.00
2018-12-13T02:31:54.190Z,0.00
2018-12-13T02:32:54.143Z,0.00
2018-12-13T02:33:54.110Z,0.00
2018-12-13T02:34:54.046Z,0.00
2018-12-13T02:35:54.005Z,0.00
2018-12-13T02:36:53.959Z,0.00
2018-12-13T02:37:53.905Z,0.00
2018-12-13T02:38:53.884Z,0.00
2018-12-13T02:39:53.813Z,0.00
2018-12-13T02:40:53.766Z,0.00
2018-12-13T02:41:53.750Z,0.00
2018-12-13T02:42:53.683Z,0.00
2018-12-13T02:43:53.661Z,0.00
2018-12-13T02:44:53.611Z,0.00
2018-12-13T02:45:53.532Z,0.00
2018-12-13T02:46:53.490Z,0.00
2018-12-13T02:47:53.445Z,0.00
2018-12-13T02:48:53.426Z,0.00
2018-12-13T02:49:53.359Z,0.00
2018-12-13T02:50:53.311Z,0.00
2018-12-13T02:51:53.260Z,0.00
2018-12-13T02:52:53.214Z,0.00
2018-12-13T02:53:53.202Z,0.00
2018-12-13T02:54:53.129Z,0.00
2018-12-13T02:55:53.083Z,0.00
2018-12-13T02:56:53.036Z,0.00
2018-12-13T02:57:52.982Z,0.00
2018-12-13T02:58:52.937Z,0.00
2018-12-13T02:59:52.935Z,0.00
2018-12-13T03:00:52.844Z,0.00
2018-12-13T03:01:52.807Z,0.00
2018-12-13T03:02:52.761Z,0.00
2018-12-13T03:03:52.714Z,0.00
2018-12-13T03:04:52.691Z,0.00
2018-12-13T03:05:52.616Z,0.00
2018-12-13T03:06:52.568Z,0.00
2018-12-13T03:07:52.536Z,0.00
2018-12-13T03:08:52.484Z,0.00
2018-12-13T03:09:52.457Z,0.00
2018-12-13T03:10:52.402Z,0.00
2018-12-13T03:11:52.337Z,0.00
2018-12-13T03:12:52.293Z,0.00
2018-12-13T03:13:52.253Z,0.00
2018-12-13T03:14:52.210Z,0.00
2018-12-13T03:15:52.185Z,0.00
2018-12-13T03:16:52.117Z,0.00
2018-12-13T03:17:52.061Z,0.00
2018-12-13T03:18:52.015Z,0.00
2018-12-13T03:19:51.972Z,0.00
2018-12-13T03:20:51.950Z,0.00
2018-12-13T03:21:51.883Z,0.00
2018-12-13T03:22:51.838Z,0.00
2018-12-13T03:23:51.819Z,0.00
2018-12-13T03:24:51.739Z,0.00
2018-12-13T03:25:51.700Z,0.00
2018-12-13T03:26:51.653Z,0.00
2018-12-13T03:27:51.610Z,0.00
2018-12-13T03:28:51.562Z,0.00
2018-12-13T03:29:51.535Z,0.00
2018-12-13T03:30:51.470Z,0.00
2018-12-13T03:31:51.418Z,0.00
2018-12-13T03:32:51.370Z,0.00
2018-12-13T03:33:51.333Z,0.00
2018-12-13T03:34:51.313Z,0.00
2018-12-13T03:35:51.242Z,0.00
2018-12-13T03:36:51.197Z,0.00
2018-12-13T03:37:51.138Z,0.00
2018-12-13T03:38:51.091Z,0.00
2018-12-13T03:39:51.061Z,0.00
2018-12-13T03:40:51.030Z,0.00
2018-12-13T03:41:50.954Z,0.00
2018-12-13T03:42:50.909Z,0.00
2018-12-13T03:43:50.862Z,0.00
2018-12-13T03:44:50.840Z,0.00
2018-12-13T03:45:50.777Z,0.00
2018-12-13T03:46:50.731Z,0.00
2018-12-13T03:47:50.683Z,0.00
2018-12-13T03:48:50.635Z,0.00
2018-12-13T03:49:50.606Z,0.00
2018-12-13T03:50:50.537Z,0.00
2018-12-13T03:51:50.494Z,0.00
2018-12-13T03:52:50.446Z,0.00
2018-12-13T03:53:50.404Z,0.00
2018-12-13T03:54:50.381Z,0.00
2018-12-13T03:55:50.303Z,0.00
2018-12-13T03:56:50.255Z,0.00
2018-12-13T03:57:50.219Z,0.00
2018-12-13T03:58:50.171Z,0.00
2018-12-13T03:59:50.148Z,0.00
2018-12-13T04:00:50.079Z,0.00
2018-12-13T04:01:50.052Z,0.00
2018-12-13T04:02:49.978Z,0.00
2018-12-13T04:03:49.939Z,0.00
2018-12-13T04:04:49.886Z,0.00
2018-12-13T04:05:49.848Z,0.00
2018-12-13T04:06:49.805Z,0.00
2018-12-13T04:07:49.781Z,0.00
2018-12-13T04:08:49.706Z,0.00
2018-12-13T04:09:49.652Z,0.00
2018-12-13T04:10:49.608Z,0.00
2018-12-13T04:11:49.568Z,0.00
2018-12-13T04:12:49.519Z,0.00
2018-12-13T04:13:49.593Z,0.00
2018-12-13T04:14:49.423Z,0.00
2018-12-13T04:15:49.375Z,0.00
2018-12-13T04:16:49.326Z,0.00
2018-12-13T04:17:49.312Z,0.00
2018-12-13T04:18:49.241Z,0.00
2018-12-13T04:19:49.194Z,0.00
2018-12-13T04:20:49.149Z,0.00
2018-12-13T04:21:49.093Z,0.00
2018-12-13T04:22:49.075Z,0.00
2018-12-13T04:23:49.004Z,0.00
2018-12-13T04:24:48.954Z,0.00
2018-12-13T04:25:48.948Z,0.00
2018-12-13T04:26:48.871Z,0.00
2018-12-13T04:27:48.927Z,0.00
2018-12-13T04:28:52.098Z,0.00
2018-12-13T04:29:48.729Z,0.00
2018-12-13T04:30:48.685Z,0.00
2018-12-13T04:31:48.636Z,0.00
2018-12-13T04:32:48.615Z,0.00
2018-12-13T04:33:48.537Z,0.00
2018-12-13T04:34:48.491Z,0.00
2018-12-13T04:35:48.443Z,0.00
2018-12-13T04:36:48.395Z,0.00
2018-12-13T04:37:48.355Z,0.00
2018-12-13T04:38:48.339Z,0.00
2018-12-13T04:39:48.264Z,0.00
2018-12-13T04:40:48.217Z,0.00
2018-12-13T04:41:48.161Z,0.00
2018-12-13T04:42:48.116Z,0.00
2018-12-13T04:43:48.100Z,0.00
2018-12-13T04:44:48.037Z,0.00
2018-12-13T04:45:47.978Z,0.00
2018-12-13T04:46:47.928Z,0.00
2018-12-13T04:47:47.885Z,0.00
2018-12-13T04:48:47.859Z,0.00
2018-12-13T04:49:47.797Z,0.00
2018-12-13T04:50:47.749Z,0.00
2018-12-13T04:51:47.704Z,0.00
2018-12-13T04:52:47.668Z,0.00
2018-12-13T04:53:47.633Z,0.00
2018-12-13T04:54:47.618Z,0.00
2018-12-13T04:55:47.509Z,0.00
2018-12-13T04:56:47.466Z,0.00
2018-12-13T04:57:47.426Z,0.00
2018-12-13T04:58:47.379Z,0.00
2018-12-13T04:59:47.347Z,0.00
2018-12-13T05:00:47.279Z,0.00
2018-12-13T05:01:47.240Z,0.00
2018-12-13T05:02:47.192Z,0.00
2018-12-13T05:03:47.145Z,0.00
2018-12-13T05:04:47.121Z,0.00
2018-12-13T05:05:47.043Z,0.00
2018-12-13T05:06:47.933Z,0.00
2018-12-13T05:07:46.951Z,0.00
2018-12-13T05:08:46.904Z,0.00
2018-12-13T05:09:46.889Z,0.00
2018-12-13T05:10:46.818Z,0.00
2018-12-13T05:11:46.771Z,0.00
2018-12-13T05:12:46.723Z,0.00
2018-12-13T05:13:46.669Z,0.00
2018-12-13T05:14:46.624Z,0.00
2018-12-13T05:15:46.611Z,0.00
2018-12-13T05:16:46.538Z,0.00
2018-12-13T05:17:46.485Z,0.00
2018-12-13T05:18:46.437Z,0.00
2018-12-13T05:19:46.392Z,0.00
2018-12-13T05:20:46.367Z,0.00
2018-12-13T05:21:46.303Z,0.00
2018-12-13T05:22:46.258Z,0.00
2018-12-13T05:23:46.214Z,0.00
2018-12-13T05:24:46.167Z,0.00
2018-12-13T05:25:46.141Z,0.00
2018-12-13T05:26:46.064Z,0.00
2018-12-13T05:27:46.018Z,0.00
2018-12-13T05:28:45.969Z,0.00
2018-12-13T05:29:45.995Z,0.00
2018-12-13T05:30:45.885Z,0.00
2018-12-13T05:31:45.856Z,0.00
2018-12-13T05:32:45.784Z,0.00
2018-12-13T05:33:45.743Z,0.00
2018-12-13T05:34:45.697Z,0.00
2018-12-13T05:35:45.677Z,0.00
2018-12-13T05:36:45.627Z,0.00
2018-12-13T05:37:48.228Z,0.00
2018-12-13T05:38:45.502Z,0.00
2018-12-13T05:39:45.457Z,0.00
2018-12-13T05:40:45.432Z,0.00
2018-12-13T05:41:45.393Z,0.00
2018-12-13T05:42:45.322Z,0.00
2018-12-13T05:43:45.276Z,0.00
2018-12-13T05:44:45.225Z,0.00
2018-12-13T05:45:45.175Z,0.00
2018-12-13T05:46:45.157Z,0.00
2018-12-13T05:47:45.093Z,0.00
2018-12-13T05:48:45.041Z,0.00
2018-12-13T05:49:44.986Z,0.00
2018-12-13T05:50:44.941Z,0.00
2018-12-13T05:51:44.892Z,0.00
2018-12-13T05:52:44.870Z,0.00
2018-12-13T05:53:44.805Z,0.00
2018-12-13T05:54:44.760Z,0.00
2018-12-13T05:55:44.712Z,0.00
2018-12-13T05:56:44.690Z,0.00
2018-12-13T05:57:44.611Z,0.00
2018-12-13T05:58:44.565Z,0.00
2018-12-13T05:59:44.517Z,0.00
2018-12-13T06:00:44.469Z,0.00
2018-12-13T06:01:44.427Z,0.00
2018-12-13T06:02:44.406Z,0.00
2018-12-13T06:03:44.328Z,0.00
2018-12-13T06:04:44.281Z,0.00
2018-12-13T06:05:44.240Z,0.00
2018-12-13T06:06:44.220Z,0.00
2018-12-13T06:07:44.147Z,0.00
2018-12-13T06:08:44.097Z,0.00
2018-12-13T06:09:44.045Z,0.00
2018-12-13T06:10:43.997Z,0.00
2018-12-13T06:11:43.950Z,0.00
2018-12-13T06:12:43.926Z,0.00
2018-12-13T06:13:43.863Z,0.00
2018-12-13T06:14:43.817Z,0.00
2018-12-13T06:15:43.768Z,0.00
2018-12-13T06:16:43.718Z,0.00
2018-12-13T06:17:43.689Z,0.00
2018-12-13T06:18:43.620Z,0.00
2018-12-13T06:19:43.580Z,0.00
2018-12-13T06:20:43.532Z,0.00
2018-12-13T06:21:43.476Z,0.00
2018-12-13T06:22:43.458Z,0.00
2018-12-13T06:23:43.385Z,0.00
2018-12-13T06:24:43.335Z,0.00
2018-12-13T06:25:43.295Z,0.00
2018-12-13T06:26:43.247Z,0.00
2018-12-13T06:27:43.203Z,0.00
2018-12-13T06:28:43.174Z,0.00
2018-12-13T06:29:48.719Z,0.00
2018-12-13T06:30:43.052Z,0.00
2018-12-13T06:31:43.007Z,0.00
2018-12-13T06:32:42.957Z,0.00
2018-12-13T06:33:42.945Z,0.00
2018-12-13T06:34:42.876Z,0.00
2018-12-13T06:35:42.816Z,0.00
2018-12-13T06:36:42.771Z,0.00
2018-12-13T06:37:42.728Z,0.00
2018-12-13T06:38:42.680Z,0.00
2018-12-13T06:39:42.654Z,0.00
2018-12-13T06:40:42.584Z,0.00
2018-12-13T06:41:42.532Z,0.00
2018-12-13T06:42:42.483Z,0.00
2018-12-13T06:43:42.463Z,0.00
2018-12-13T06:44:42.387Z,0.00
2018-12-13T06:45:42.345Z,0.00
2018-12-13T06:46:42.300Z,0.00
2018-12-13T06:47:42.252Z,0.00
2018-12-13T06:48:42.207Z,0.00
2018-12-13T06:49:42.174Z,0.00
2018-12-13T06:50:42.105Z,0.00
2018-12-13T06:51:42.064Z,0.00
2018-12-13T06:52:42.016Z,0.00
2018-12-13T06:53:41.962Z,0.00
2018-12-13T06:54:41.938Z,0.00
2018-12-13T06:55:41.967Z,0.00
2018-12-13T06:56:41.818Z,0.00
2018-12-13T06:57:41.779Z,0.00
2018-12-13T06:58:41.730Z,0.00
2018-12-13T06:59:41.686Z,0.00
2018-12-13T07:00:41.636Z,0.00
2018-12-13T07:01:41.606Z,0.00
2018-12-13T07:02:41.533Z,0.00
2018-12-13T07:03:41.487Z,0.00
2018-12-13T07:04:41.439Z,0.00
2018-12-13T07:05:41.400Z,0.00
2018-12-13T07:06:41.381Z,0.00
2018-12-13T07:07:41.297Z,0.00
2018-12-13T07:08:41.251Z,0.00
2018-12-13T07:09:41.211Z,0.00
2018-12-13T07:10:41.163Z,0.00
2018-12-13T07:11:41.114Z,0.00
2018-12-13T07:12:41.092Z,5.63
2018-12-13T07:13:41.016Z,5.63
2018-12-13T07:14:40.993Z,5.63
2018-12-13T07:15:40.919Z,5.63
2018-12-13T07:16:40.876Z,5.63
2018-12-13T07:17:40.856Z,5.63
2018-12-13T07:18:40.787Z,5.63
2018-12-13T07:19:40.738Z,11.25
2018-12-13T07:20:40.691Z,11.25
2018-12-13T07:21:40.638Z,11.25
2018-12-13T07:22:40.614Z,11.25
2018-12-13T07:23:40.556Z,11.25
2018-12-13T07:24:40.504Z,11.25
2018-12-13T07:25:40.453Z,16.88
2018-12-13T07:26:40.403Z,16.88
2018-12-13T07:27:40.357Z,16.88
2018-12-13T07:28:40.330Z,16.88
2018-12-13T07:29:40.264Z,22.50
2018-12-13T07:30:40.243Z,22.50
2018-12-13T07:31:40.164Z,22.50
2018-12-13T07:32:40.124Z,28.13
2018-12-13T07:33:40.081Z,28.13
2018-12-13T07:34:40.055Z,28.13
2018-12-13T07:35:40.050Z,28.13
2018-12-13T07:36:39.938Z,33.75
2018-12-13T07:37:39.883Z,33.75
2018-12-13T07:38:39.845Z,33.75
2018-12-13T07:39:39.798Z,39.38
2018-12-13T07:40:39.771Z,39.38
2018-12-13T07:41:39.692Z,45.00
2018-12-13T07:42:39.647Z,45.00
2018-12-13T07:43:39.598Z,45.00
2018-12-13T07:44:39.573Z,50.63
2018-12-13T07:45:39.512Z,50.63
2018-12-13T07:46:39.487Z,50.63
2018-12-13T07:47:39.418Z,56.25
2018-12-13T07:48:39.369Z,56.25
2018-12-13T07:49:39.316Z,56.25
2018-12-13T07:50:39.297Z,61.88
2018-12-13T07:51:39.219Z,61.88
2018-12-13T07:52:39.173Z,67.50
2018-12-13T07:53:39.137Z,67.50
2018-12-13T07:54:39.089Z,67.50
2018-12-13T07:55:39.031Z,73.13
2018-12-13T07:56:39.007Z,73.13
2018-12-13T07:57:38.956Z,73.13
2018-12-13T07:58:38.899Z,78.75
2018-12-13T07:59:38.852Z,78.75
2018-12-13T08:00:38.803Z,84.38
2018-12-13T08:01:38.774Z,84.38
2018-12-13T08:02:38.702Z,84.38
2018-12-13T08:03:38.656Z,90.00
2018-12-13T08:04:38.609Z,90.00
2018-12-13T08:05:38.568Z,95.63
2018-12-13T08:06:38.542Z,95.63
2018-12-13T08:07:38.502Z,95.63
2018-12-13T08:08:38.427Z,101.25
2018-12-13T08:09:38.372Z,101.25
2018-12-13T08:10:38.325Z,106.88
2018-12-13T08:11:38.310Z,106.88
2018-12-13T08:12:38.260Z,106.88
2018-12-13T08:13:38.185Z,112.50
2018-12-13T08:14:38.135Z,112.50
2018-12-13T08:15:38.117Z,118.13
2018-12-13T08:16:38.041Z,123.75
2018-12-13T08:17:38.113Z,129.38
2018-12-13T08:18:37.955Z,135.00
2018-12-13T08:19:37.909Z,140.63
2018-12-13T08:20:37.862Z,168.75
2018-12-13T08:21:37.940Z,202.50
2018-12-13T08:22:37.974Z,225.00
2018-12-13T08:23:37.713Z,253.13
2018-12-13T08:24:37.669Z,275.63
2018-12-13T08:25:38.511Z,286.88
2018-12-13T08:26:37.652Z,298.13
2018-12-13T08:27:38.054Z,303.75
2018-12-13T08:28:37.730Z,315.00
2018-12-13T08:29:37.532Z,309.38
2018-12-13T08:30:37.397Z,315.00
2018-12-13T08:31:37.348Z,326.25
2018-12-13T08:32:40.509Z,337.50
2018-12-13T08:33:38.667Z,331.88
2018-12-13T08:34:37.206Z,337.50
2018-12-13T08:35:37.776Z,343.13
2018-12-13T08:36:37.113Z,354.38
2018-12-13T08:37:37.103Z,360.00
2018-12-13T08:38:37.033Z,365.63
2018-12-13T08:39:36.990Z,365.63
2018-12-13T08:40:36.943Z,376.88
2018-12-13T08:41:37.156Z,382.50
2018-12-13T08:42:38.009Z,388.13
2018-12-13T08:43:36.993Z,399.38
2018-12-13T08:44:38.012Z,405.00
2018-12-13T08:45:37.642Z,421.88
2018-12-13T08:46:36.847Z,427.50
2018-12-13T08:47:36.631Z,444.38
2018-12-13T08:48:37.725Z,461.25
2018-12-13T08:49:38.013Z,472.50
2018-12-13T08:50:36.512Z,495.00
2018-12-13T08:51:36.468Z,523.13
2018-12-13T08:52:36.427Z,551.25
2018-12-13T08:53:36.376Z,573.75
2018-12-13T08:54:36.409Z,607.50
2018-12-13T08:55:37.014Z,635.63
2018-12-13T08:56:36.251Z,652.50
2018-12-13T08:57:36.216Z,675.00
2018-12-13T08:58:36.173Z,680.63
2018-12-13T08:59:36.189Z,697.50
2018-12-13T09:00:36.311Z,703.13
2018-12-13T09:01:37.218Z,720.00
2018-12-13T09:02:36.011Z,736.88
2018-12-13T09:03:35.969Z,765.00
2018-12-13T09:04:35.925Z,810.00
2018-12-13T09:05:35.878Z,843.75
2018-12-13T09:06:35.893Z,905.63
2018-12-13T09:07:35.797Z,950.63
2018-12-13T09:08:35.755Z,1001.25
2018-12-13T09:09:35.724Z,1080.00
2018-12-13T09:10:35.686Z,1158.75
2018-12-13T09:11:35.667Z,1254.38
2018-12-13T09:12:35.628Z,1338.75
2018-12-13T09:13:35.554Z,1355.63
2018-12-13T09:14:35.512Z,1355.63
2018-12-13T09:15:36.518Z,1310.63
2018-12-13T09:16:35.448Z,1260.00
2018-12-13T09:17:35.395Z,1243.13
2018-12-13T09:18:35.376Z,1209.38
2018-12-13T09:19:35.323Z,1181.25
2018-12-13T09:20:35.276Z,1158.75
2018-12-13T09:21:35.245Z,1125.00
2018-12-13T09:22:35.232Z,1080.00
2018-12-13T09:23:35.161Z,1068.75
2018-12-13T09:24:35.123Z,1035.00
2018-12-13T09:25:35.079Z,1006.88
2018-12-13T09:26:35.038Z,984.38
2018-12-13T09:27:35.000Z,973.13
2018-12-13T09:28:34.985Z,945.00
2018-12-13T09:29:34.924Z,922.50
2018-12-13T09:30:34.929Z,905.63
2018-12-13T09:31:34.885Z,894.38
2018-12-13T09:32:34.951Z,866.25
2018-12-13T09:33:35.228Z,855.00
2018-12-13T09:34:34.944Z,849.38
2018-12-13T09:35:34.709Z,838.13
2018-12-13T09:36:34.817Z,832.50
2018-12-13T09:37:34.602Z,815.63
2018-12-13T09:38:39.773Z,798.75
2018-12-13T09:39:34.555Z,787.50
2018-12-13T09:40:34.483Z,765.00
2018-12-13T09:41:34.449Z,748.13
2018-12-13T09:42:34.412Z,725.63
2018-12-13T09:43:34.372Z,703.13
2018-12-13T09:44:34.331Z,675.00
2018-12-13T09:45:34.306Z,652.50
2018-12-13T09:46:34.245Z,630.00
2018-12-13T09:47:34.213Z,618.75
2018-12-13T09:48:34.174Z,596.25
2018-12-13T09:49:34.125Z,590.63
2018-12-13T09:50:34.115Z,579.38
2018-12-13T09:51:34.048Z,573.75
2018-12-13T09:52:34.007Z,568.13
2018-12-13T09:53:33.972Z,562.50
2018-12-13T09:54:33.934Z,562.50
2018-12-13T09:55:33.899Z,562.50
2018-12-13T09:56:33.881Z,562.50
2018-12-13T09:57:33.808Z,556.88
2018-12-13T09:58:33.769Z,556.88
2018-12-13T09:59:33.730Z,556.88
2018-12-13T10:00:33.692Z,551.25
2018-12-13T10:01:33.656Z,551.25
2018-12-13T10:02:33.646Z,551.25
2018-12-13T10:03:33.572Z,551.25
2018-12-13T10:04:33.530Z,545.63
2018-12-13T10:05:33.497Z,545.63
2018-12-13T10:06:33.487Z,551.25
2018-12-13T10:07:33.435Z,545.63
2018-12-13T10:08:33.378Z,545.63
2018-12-13T10:09:33.332Z,545.63
2018-12-13T10:10:33.296Z,540.00
2018-12-13T10:11:33.255Z,540.00
2018-12-13T10:12:33.254Z,540.00
2018-12-13T10:13:33.177Z,545.63
2018-12-13T10:14:33.140Z,545.63
2018-12-13T10:15:33.103Z,540.00
2018-12-13T10:16:33.059Z,540.00
2018-12-13T10:17:33.014Z,540.00
2018-12-13T10:18:32.998Z,540.00
2018-12-13T10:19:32.948Z,545.63
2018-12-13T10:20:32.902Z,540.00
2018-12-13T10:21:32.857Z,528.75
2018-12-13T10:22:32.816Z,523.13
2018-12-13T10:23:32.800Z,523.13
2018-12-13T10:24:32.738Z,517.50
2018-12-13T10:25:32.706Z,523.13
2018-12-13T10:26:32.665Z,517.50
2018-12-13T10:27:32.629Z,523.13
2018-12-13T10:28:32.606Z,517.50
2018-12-13T10:29:32.538Z,523.13
2018-12-13T10:30:32.497Z,523.13
2018-12-13T10:31:32.457Z,517.50
2018-12-13T10:32:32.423Z,517.50
2018-12-13T10:33:32.409Z,517.50
2018-12-13T10:34:32.344Z,517.50
2018-12-13T10:35:32.296Z,511.88
2018-12-13T10:36:32.257Z,511.88
2018-12-13T10:37:32.225Z,511.88
2018-12-13T10:38:32.183Z,517.50
2018-12-13T10:39:32.165Z,511.88
2018-12-13T10:40:32.101Z,517.50
2018-12-13T10:41:32.058Z,517.50
2018-12-13T10:42:32.016Z,517.50
2018-12-13T10:43:32.004Z,511.88
2018-12-13T10:44:31.947Z,517.50
2018-12-13T10:45:31.902Z,511.88
2018-12-13T10:46:31.864Z,511.88
2018-12-13T10:47:31.826Z,511.88
2018-12-13T10:48:31.780Z,511.88
2018-12-13T10:49:31.757Z,511.88
2018-12-13T10:50:31.694Z,523.13
2018-12-13T10:51:31.666Z,517.50
2018-12-13T10:52:31.625Z,511.88
2018-12-13T10:53:31.578Z,511.88
2018-12-13T10:54:31.562Z,523.13
2018-12-13T10:55:31.495Z,523.13
2018-12-13T10:56:31.452Z,528.75
2018-12-13T10:57:31.426Z,528.75
2018-12-13T10:58:31.378Z,528.75
2018-12-13T10:59:31.340Z,528.75
2018-12-13T11:00:31.321Z,528.75
2018-12-13T11:01:31.254Z,540.00
2018-12-13T11:02:31.213Z,540.00
2018-12-13T11:03:31.171Z,551.25
2018-12-13T11:04:31.154Z,556.88
2018-12-13T11:05:31.094Z,551.25
2018-12-13T11:06:31.055Z,551.25
2018-12-13T11:07:31.009Z,551.25
2018-12-13T11:08:30.967Z,551.25
2018-12-13T11:09:30.957Z,562.50
2018-12-13T11:10:30.893Z,556.88
2018-12-13T11:11:30.881Z,551.25
2018-12-13T11:12:30.811Z,551.25
2018-12-13T11:13:30.768Z,568.13
2018-12-13T11:14:30.743Z,573.75
2018-12-13T11:15:30.683Z,635.63
2018-12-13T11:16:30.643Z,708.75
2018-12-13T11:17:30.631Z,708.75
2018-12-13T11:18:30.568Z,697.50
2018-12-13T11:19:30.552Z,697.50
2018-12-13T11:20:30.483Z,686.25
2018-12-13T11:21:30.435Z,703.13
2018-12-13T11:22:30.396Z,315.00
2018-12-13T11:23:30.365Z,675.00
2018-12-13T11:24:30.342Z,680.63
2018-12-13T11:25:30.274Z,354.38
2018-12-13T11:26:30.231Z,315.00
2018-12-13T11:27:30.197Z,489.38
2018-12-13T11:28:30.150Z,624.38
2018-12-13T11:29:30.142Z,613.13
2018-12-13T11:30:30.074Z,641.25
2018-12-13T11:31:30.035Z,376.88
2018-12-13T11:32:29.992Z,635.63
2018-12-13T11:33:29.942Z,635.63
2018-12-13T11:34:29.902Z,438.75
2018-12-13T11:35:29.889Z,641.25
2018-12-13T11:36:29.818Z,652.50
2018-12-13T11:37:29.785Z,708.75
2018-12-13T11:38:29.745Z,765.00
2018-12-13T11:39:29.698Z,663.75
2018-12-13T11:40:29.678Z,781.88
2018-12-13T11:41:29.618Z,832.50
2018-12-13T11:42:29.580Z,866.25
2018-12-13T11:43:29.537Z,916.88
2018-12-13T11:44:29.497Z,933.75
2018-12-13T11:45:29.473Z,483.75
2018-12-13T11:46:29.405Z,461.25
2018-12-13T11:47:29.374Z,472.50
2018-12-13T11:48:29.352Z,483.75
2018-12-13T11:49:29.293Z,658.13
2018-12-13T11:50:29.249Z,416.25
2018-12-13T11:51:29.210Z,421.88
2018-12-13T11:52:29.166Z,433.13
2018-12-13T11:53:29.119Z,444.38
2018-12-13T11:54:29.103Z,450.00
2018-12-13T11:55:29.043Z,427.50
2018-12-13T11:56:29.003Z,427.50
2018-12-13T11:57:28.954Z,466.88
2018-12-13T11:58:28.941Z,787.50
2018-12-13T11:59:28.869Z,635.63
2018-12-13T12:00:28.827Z,562.50
2018-12-13T12:01:28.792Z,832.50
2018-12-13T12:02:28.753Z,815.63
2018-12-13T12:03:28.709Z,405.00
2018-12-13T12:04:28.688Z,405.00
2018-12-13T12:05:28.617Z,511.88
2018-12-13T12:06:28.574Z,399.38
2018-12-13T12:07:28.533Z,714.38
2018-12-13T12:08:28.492Z,590.63
2018-12-13T12:09:28.477Z,556.88
2018-12-13T12:10:28.411Z,691.88
2018-12-13T12:11:28.366Z,669.38
2018-12-13T12:12:28.320Z,309.38
2018-12-13T12:13:28.284Z,309.38
2018-12-13T12:14:28.266Z,315.00
2018-12-13T12:15:28.201Z,410.63
2018-12-13T12:16:28.158Z,675.00
2018-12-13T12:17:28.108Z,669.38
2018-12-13T12:18:28.066Z,641.25
2018-12-13T12:19:28.050Z,641.25
2018-12-13T12:20:27.979Z,320.63
2018-12-13T12:21:27.946Z,635.63
2018-12-13T12:22:27.901Z,596.25
2018-12-13T12:23:27.861Z,270.00
2018-12-13T12:24:27.819Z,416.25
2018-12-13T12:25:27.791Z,286.88
2018-12-13T12:26:27.725Z,258.75
2018-12-13T12:27:27.691Z,253.13
2018-12-13T12:28:27.646Z,247.50
2018-12-13T12:29:27.597Z,247.50
2018-12-13T12:30:27.576Z,247.50
2018-12-13T12:31:27.511Z,236.25
2018-12-13T12:32:27.468Z,247.50
2018-12-13T12:33:27.433Z,241.88
2018-12-13T12:34:27.390Z,241.88
2018-12-13T12:35:27.382Z,236.25
2018-12-13T12:36:27.303Z,225.00
2018-12-13T12:37:27.253Z,236.25
2018-12-13T12:38:27.210Z,230.63
2018-12-13T12:39:27.165Z,219.38
2018-12-13T12:40:27.123Z,225.00
2018-12-13T12:41:27.109Z,230.63
2018-12-13T12:42:27.043Z,225.00
2018-12-13T12:43:26.992Z,225.00
2018-12-13T12:44:26.950Z,225.00
2018-12-13T12:45:26.932Z,219.38
2018-12-13T12:46:26.867Z,219.38
2018-12-13T12:47:26.823Z,219.38
2018-12-13T12:48:26.780Z,219.38
2018-12-13T12:49:26.731Z,213.75
2018-12-13T12:50:26.769Z,213.75
2018-12-13T12:51:26.661Z,213.75
2018-12-13T12:52:26.596Z,213.75
2018-12-13T12:53:26.559Z,213.75
2018-12-13T12:54:26.539Z,213.75
2018-12-13T12:55:26.470Z,213.75